• Join FlightAware (Why Join?)
  • Login
  • US Flag 
11:51PM EDT


 

Airport Tracker/Info


-or-


 

Live Flight TrackerFlight Track Log ✈ FLG4081 ✈ 16-Jun-2013 ✈ KRIC - KDTW

Flight Track Log - Related Links

Times and Time Zones

All times are in EDT time to prevent confusion due to time zone crossing. See the FLG4081 flight status page for this flight to view local times or setup timezone preferences in your user account.

Time Position Orientation Groundspeed Altitude Reporting Facility
EDT Latitude Longitude Course Direction KTS MPH feet Rate Location/Type
12:53AM 37.4528 -77.3917 251° West 193 222 4,200  Level Washington Center
12:54AM 37.4411 -77.4672 259° West 231 266 7,100 3,060 Climbing Washington Center
12:55AM 37.3984 -77.7517 254° West  Level FlightAware Approximate
12:55AM 37.4272 -77.5558 259° West 249 287 10,400  Level Washington Center
12:56AM 37.3724 -77.8659 254° West  Level FlightAware Approximate
12:56AM 37.4131 -77.6522 260° West 268 308 12,500  Level Washington Center
12:57AM 37.3500 -77.9807 270° West  Level FlightAware Approximate
12:57AM 37.3944 -77.7617 258° West 296 341 14,500  Level Washington Center
12:58AM 37.3756 -77.8864 259° West 329 379 16,600 1,740 Climbing Washington Center
12:59AM 37.3544 -78.0008 257° West 335 386 18,100 1,320 Climbing Washington Center
01:00AM 37.3269 -78.1200 254° West 341 392 19,300 1,020 Climbing Washington Center
01:01AM 37.3081 -78.2264 257° West 354 407 20,200 900 Climbing Washington Center
01:02AM 37.3050 -78.3569 268° West 367 422 21,200 1,080 Climbing Washington Center
01:03AM 37.3922 -78.4594 317° Northwest 344 396 22,400 1,020 Climbing Washington Center
01:04AM 37.4672 -78.5564 314° West 356 410 23,300 960 Climbing Washington Center
01:05AM 37.5439 -78.6511 316° Northwest 372 428 24,300 960 Climbing Washington Center
01:06AM 37.6147 -78.7378 316° Northwest 383 441 25,300 960 Climbing Washington Center
01:07AM 37.6914 -78.8356 315° West 388 447 26,300 900 Climbing Washington Center
01:08AM 37.7658 -78.9333 314° West 393 452 27,200 840 Climbing Washington Center
01:09AM 37.8617 -79.0192 325° Northwest 393 452 28,000 360 Climbing Washington Center
01:10AM 37.9553 -79.0997 326° Northwest 399 459 28,000  Level Washington Center
01:11AM 38.0528 -79.1833 326° Northwest 411 473 28,000  Level Washington Center
01:12AM 38.1422 -79.2589 326° Northwest 426 490 28,000 120 Level Washington Center
01:13AM 38.2417 -79.3458 326° Northwest 432 497 28,300 600 Climbing Washington Center
01:14AM 38.3392 -79.4275 327° Northwest 432 497 29,300 840 Climbing Washington Center
01:15AM 38.4406 -79.5175 325° Northwest 424 488 30,000 300 Climbing Washington Center
01:16AM 38.5358 -79.5997 326° Northwest 424 488 30,000 -360 Level Washington Center
01:17AM 38.6372 -79.6875 326° Northwest 424 488 29,300 -900 Descending Washington Center
01:18AM 38.7364 -79.7783 324° Northwest 429 494 28,200 -660 Descending Washington Center
01:19AM 38.8336 -79.8583 327° Northwest 442 509 28,000 -120 Descending Washington Center
01:20AM 38.9347 -79.9469 326° Northwest 449 517 28,000  Level Washington Center
01:21AM 39.0378 -80.0333 327° Northwest 449 517 28,000  Level Washington Center
01:22AM 39.1408 -80.1225 326° Northwest 449 517 28,000 -600 Level Washington Center
01:24AM 39.2444 -80.2022 326° Northwest  Level FlightAware Approximate
01:31AM 39.8013 -80.7011 326° Northwest  Level FlightAware Approximate
01:32AM 39.8807 -80.7731 325° Northwest  Level FlightAware Approximate
01:33AM 39.9601 -80.8452 325° Northwest  Level FlightAware Approximate
01:34AM 40.0394 -80.9174 325° Northwest  Level FlightAware Approximate
01:35AM 40.1136 -80.9853 325° Northwest  Level FlightAware Approximate
01:36AM 40.1878 -81.0533 325° Northwest  Level FlightAware Approximate
01:37AM 40.2620 -81.1215 325° Northwest  Level FlightAware Approximate
01:38AM 40.3361 -81.1898 325° Northwest  Level FlightAware Approximate
01:39AM 40.4102 -81.2582 325° Northwest  Level FlightAware Approximate
01:40AM 40.4842 -81.3268 325° Northwest  Level FlightAware Approximate
01:41AM 40.5582 -81.3956 325° Northwest  Level FlightAware Approximate
01:42AM 40.6318 -81.4651 323° Northwest  Level FlightAware Approximate
01:43AM 40.7040 -81.5372 323° Northwest  Level FlightAware Approximate
01:44AM 40.7766 -81.6086 324° Northwest  Level FlightAware Approximate
01:45AM 40.8501 -81.6786 324° Northwest  Level FlightAware Approximate
01:46AM 40.9236 -81.7487 324° Northwest  Level FlightAware Approximate
01:47AM 40.9970 -81.8190 324° Northwest  Level FlightAware Approximate
01:48AM 41.0704 -81.8894 324° Northwest  Level FlightAware Approximate
01:49AM 41.1439 -81.9596 326° Northwest  Level FlightAware Approximate
01:50AM 41.2187 -82.0275 326° Northwest  Level FlightAware Approximate
01:51AM 41.2935 -82.0955 326° Northwest  Level FlightAware Approximate
01:52AM 41.3615 -82.1731 304° West  Level FlightAware Approximate
01:53AM 41.4181 -82.2673 309° West  Level FlightAware Approximate
01:54AM 41.4754 -82.3609 309° West  Level FlightAware Approximate
01:55AM 41.5326 -82.4547 309° West  Level FlightAware Approximate
01:56AM 41.5895 -82.5490 309° West  Level FlightAware Approximate
01:56AM 42.0667 -83.0586 315° West 264 304 8,600  Level Cleveland Center
01:57AM 41.6461 -82.6435 309° West  Level FlightAware Approximate
01:57AM 42.1297 -83.1283 321° Northwest 262 302 6,100  Level Cleveland Center
01:58AM 41.7024 -82.7382 304° West  Level FlightAware Approximate
01:58AM 42.1828 -83.1836 322° Northwest 250 288 4,100  Level Cleveland Center
01:59AM 41.7685 -82.8192 314° West  Level FlightAware Approximate
01:59AM 42.2336 -83.2361 323° Northwest 212 244 3,000  Level Cleveland Center
02:00AM 41.8312 -82.9069 314° West  Level FlightAware Approximate
02:00AM 42.2681 -83.2825 315° West 134 154 2,600  Level Cleveland Center
02:01AM 41.8950 -82.9933 315° West  Level FlightAware Approximate
02:01AM 42.2731 -83.3306 278° West 122 140 1,900  Level Cleveland Center
02:02AM 42.2456 -83.3544 213° Southwest 119 137 1,200 -720 Descending Cleveland Center
02:04AM 42.2124 -83.3534 180° South  Level Estimated
02:11AM 42.2124 -83.3534 180° South  Level Estimated
02:12AM 42.2124 -83.3534 180° South  Level Estimated
02:13AM 42.2124 -83.3534 180° South  Level Estimated
02:14AM 42.2124 -83.3534 180° South  Level Estimated
02:15AM 42.2124 -83.3534 180° South  Level Estimated
02:16AM 42.2124 -83.3534 180° South  Level Estimated
02:17AM 42.2124 -83.3534 180° South  Level Estimated
02:18AM 42.2124 -83.3534 180° South  Level Estimated
02:19AM 42.2124 -83.3534 180° South  Level Estimated